PAEN

Kenai Municipal Airport

Airport
ICAO code
PAEN
Summary
ICAO Region
NAM
ICAO Territory
Location

Kenai,

Coordinates
60° 34' 16" N , 151° 14' 14" W
KCC
Airport BS
Bird Strike
Non Avian Wildlife Hazards to Aircraft
Airport CFIT
Altimeter Temperature Error Correction
Metar
PAEN 141953Z 34005KT 10SM CLR 03/M07 A3021 RMK AO2 SLP231 T00331067

Description

Regional airport serving the city of Kenai.

Climatology

Cool continental climate/Subarctic climate (Köppen climate classification Dfc)

Runways

Designator Length Width Surface Rops
01R/19L 610 18 GVL Yes/Yes
01W/19W 1402 77 WATER-E No/No
01L/19R 2309 46 ASP Yes/Yes

Airport map

Aerial View

SKYbrary Partners:

Safety knowledge contributed by: